createdAt,value
2022-09-23T00:04:10.135Z,95.20
2022-09-23T00:14:25.408Z,95.40
2022-09-23T00:19:23.755Z,95.50
2022-09-23T00:24:23.311Z,95.50
2022-09-23T00:29:21.437Z,95.40
2022-09-23T00:34:19.653Z,95.50
2022-09-23T00:39:17.764Z,95.40
2022-09-23T00:44:44.423Z,95.40
2022-09-23T00:49:42.799Z,95.60
2022-09-23T00:54:41.758Z,95.60
2022-09-23T00:59:40.303Z,95.50
2022-09-23T01:04:41.135Z,95.70
2022-09-23T01:09:39.324Z,95.30
2022-09-23T01:14:47.387Z,95.50
2022-09-23T01:20:06.926Z,95.60
2022-09-23T01:25:31.603Z,95.60
2022-09-23T01:30:45.695Z,95.60
2022-09-23T01:36:00.703Z,95.70
2022-09-23T01:41:03.431Z,95.70
2022-09-23T01:46:08.262Z,95.70
2022-09-23T01:51:10.586Z,96.00
2022-09-23T01:56:14.314Z,95.90
2022-09-23T02:01:20.328Z,95.80
2022-09-23T02:06:23.010Z,95.90
2022-09-23T02:11:22.097Z,96.00
2022-09-23T02:16:28.058Z,96.10
2022-09-23T02:21:30.932Z,95.90
2022-09-23T02:26:32.579Z,96.20
2022-09-23T02:31:38.370Z,96.20
2022-09-23T02:36:45.986Z,96.10
2022-09-23T02:41:55.800Z,96.10
2022-09-23T02:46:56.825Z,96.20
2022-09-23T02:51:55.955Z,96.30
2022-09-23T02:56:54.288Z,96.20
2022-09-23T03:02:09.782Z,96.40
2022-09-23T03:07:15.341Z,96.30
2022-09-23T03:12:18.485Z,96.10
2022-09-23T03:17:26.334Z,96.40
2022-09-23T03:22:29.265Z,96.30
2022-09-23T03:27:31.000Z,96.30
2022-09-23T03:32:32.080Z,96.40
2022-09-23T03:37:34.979Z,96.50
2022-09-23T03:42:34.252Z,96.50
2022-09-23T03:47:33.854Z,96.50
2022-09-23T03:52:32.013Z,96.50
2022-09-23T03:57:30.124Z,96.50
2022-09-23T04:02:28.398Z,96.40
2022-09-23T04:07:28.386Z,96.40
2022-09-23T04:12:26.906Z,96.50
2022-09-23T04:17:25.220Z,96.40
2022-09-23T04:22:23.337Z,96.50
2022-09-23T04:27:22.863Z,96.50
2022-09-23T04:32:21.022Z,96.30
2022-09-23T04:37:19.174Z,96.50
2022-09-23T04:42:17.287Z,96.40
2022-09-23T04:47:19.231Z,96.40
2022-09-23T04:52:17.459Z,96.40
2022-09-23T04:57:15.700Z,96.40
2022-09-23T05:02:14.247Z,96.50
2022-09-23T05:07:14.215Z,96.50
2022-09-23T05:12:12.616Z,96.50
2022-09-23T05:17:11.792Z,96.70
2022-09-23T05:22:09.908Z,96.60
2022-09-23T05:27:09.848Z,96.70
2022-09-23T05:32:08.006Z,96.70
2022-09-23T05:37:06.358Z,96.70
2022-09-23T05:42:05.047Z,96.80
2022-09-23T05:47:04.778Z,96.70
2022-09-23T05:52:03.267Z,96.70
2022-09-23T05:57:04.282Z,96.80
2022-09-23T06:02:04.681Z,96.80
2022-09-23T06:07:03.727Z,96.90
2022-09-23T06:12:02.406Z,96.90
2022-09-23T06:17:00.576Z,96.90
2022-09-23T06:22:00.120Z,97.00
2022-09-23T06:26:58.249Z,97.20
2022-09-23T06:31:56.889Z,97.00
2022-09-23T06:36:55.592Z,97.20
2022-09-23T06:41:55.379Z,97.30
2022-09-23T06:46:56.344Z,97.10
2022-09-23T06:51:56.206Z,97.00
2022-09-23T06:56:55.666Z,97.10
2022-09-23T07:01:53.933Z,97.20
2022-09-23T07:06:54.649Z,97.00
2022-09-23T07:11:52.760Z,97.30
2022-09-23T07:16:53.270Z,97.00
2022-09-23T07:21:51.356Z,97.10
2022-09-23T07:26:49.676Z,96.90
2022-09-23T07:31:47.946Z,96.90
2022-09-23T07:36:47.479Z,96.80
2022-09-23T07:41:45.597Z,96.70
2022-09-23T07:46:43.874Z,97.40
2022-09-23T07:51:45.949Z,96.40
2022-09-23T07:56:45.679Z,96.40
2022-09-23T08:01:45.394Z,96.40
2022-09-23T08:06:45.324Z,96.30
2022-09-23T08:11:45.356Z,96.20
2022-09-23T08:16:44.772Z,95.90
2022-09-23T08:21:43.594Z,95.80
2022-09-23T08:26:41.806Z,95.90
2022-09-23T08:31:41.416Z,96.30
2022-09-23T08:36:39.663Z,95.90
2022-09-23T08:41:45.735Z,95.90
2022-09-23T08:46:50.499Z,95.90
2022-09-23T08:51:50.716Z,96.30
2022-09-23T08:56:52.376Z,95.30
2022-09-23T09:01:54.845Z,95.40
2022-09-23T09:07:12.391Z,95.60
2022-09-23T09:12:17.189Z,95.50
2022-09-23T09:17:24.755Z,95.30
2022-09-23T09:22:32.075Z,94.80
2022-09-23T09:27:30.544Z,94.50
2022-09-23T09:32:40.740Z,94.40
2022-09-23T09:37:47.111Z,94.30
2022-09-23T09:42:48.703Z,94.40
2022-09-23T09:47:56.681Z,94.30
2022-09-23T09:53:35.857Z,94.20
2022-09-23T09:58:46.774Z,94.20
2022-09-23T10:03:46.805Z,93.90
2022-09-23T10:09:08.525Z,93.40
2022-09-23T10:14:12.376Z,93.20
2022-09-23T10:19:25.853Z,93.50
2022-09-23T10:24:27.805Z,93.10
2022-09-23T10:29:30.424Z,92.00
2022-09-23T10:34:30.925Z,92.50
2022-09-23T10:39:46.776Z,92.60
2022-09-23T10:45:18.461Z,91.10
2022-09-23T10:50:33.097Z,90.30
2022-09-23T10:55:40.711Z,91.00
2022-09-23T11:00:48.446Z,91.30
2022-09-23T11:06:00.791Z,89.40
2022-09-23T11:11:11.503Z,90.80
2022-09-23T11:16:20.732Z,90.00
2022-09-23T11:21:44.176Z,90.00
2022-09-23T11:26:53.111Z,90.20
2022-09-23T11:31:59.689Z,85.50
2022-09-23T11:37:04.289Z,87.90
2022-09-23T11:42:05.709Z,87.30
2022-09-23T11:47:08.657Z,84.70
2022-09-23T11:52:13.680Z,87.10
2022-09-23T11:57:17.697Z,83.70
2022-09-23T12:02:30.266Z,84.60
2022-09-23T12:07:40.574Z,85.40
2022-09-23T12:12:47.719Z,85.60
2022-09-23T12:18:11.095Z,85.30
2022-09-23T12:23:27.694Z,86.40
2022-09-23T12:28:29.264Z,87.70
2022-09-23T12:33:29.956Z,85.90
2022-09-23T12:38:34.537Z,86.30
2022-09-23T12:43:34.514Z,84.50
2022-09-23T12:48:47.108Z,84.50
2022-09-23T12:53:58.496Z,82.30
2022-09-23T12:59:14.574Z,83.60
2022-09-23T13:04:53.150Z,86.50
2022-09-23T13:09:57.049Z,84.10
2022-09-23T13:14:58.097Z,83.90
2022-09-23T13:20:01.898Z,86.10
2022-09-23T13:25:04.009Z,85.00
2022-09-23T13:30:05.729Z,83.40
2022-09-23T13:35:06.322Z,83.00
2022-09-23T13:40:25.463Z,83.50
2022-09-23T13:45:26.362Z,85.20
2022-09-23T13:50:25.688Z,82.80
2022-09-23T13:55:31.760Z,85.60
2022-09-23T14:00:36.364Z,83.30
2022-09-23T14:05:36.673Z,85.10
2022-09-23T14:10:36.206Z,82.60
2022-09-23T14:15:38.546Z,82.20
2022-09-23T14:20:47.135Z,82.60
2022-09-23T14:25:47.863Z,82.70
2022-09-23T14:30:48.218Z,82.80
2022-09-23T14:35:49.250Z,82.90
2022-09-23T14:40:54.633Z,82.70
2022-09-23T14:45:56.349Z,82.80
2022-09-23T14:50:58.583Z,84.30
2022-09-23T14:56:10.853Z,82.70
2022-09-23T15:01:26.532Z,82.60
2022-09-23T15:06:25.919Z,85.40
2022-09-23T15:11:26.075Z,83.70
2022-09-23T15:16:27.671Z,83.80
2022-09-23T15:21:26.650Z,86.00
2022-09-23T15:26:40.639Z,85.70
2022-09-23T15:31:39.062Z,86.80
2022-09-23T15:36:38.249Z,86.00
2022-09-23T15:41:37.839Z,85.70
2022-09-23T15:46:38.338Z,86.10
2022-09-23T15:51:38.204Z,86.50
2022-09-23T15:56:38.048Z,87.00
2022-09-23T16:01:37.838Z,88.40
2022-09-23T16:06:36.029Z,87.00
2022-09-23T16:11:35.933Z,87.30
2022-09-23T16:16:35.446Z,87.30
2022-09-23T16:21:34.794Z,87.40
2022-09-23T16:26:35.551Z,87.90
2022-09-23T16:31:36.139Z,88.00
2022-09-23T16:36:35.835Z,88.00
2022-09-23T16:41:34.473Z,87.90
2022-09-23T16:46:33.170Z,88.90
2022-09-23T16:51:37.970Z,88.90
2022-09-23T16:56:36.164Z,88.90
2022-09-23T17:01:51.621Z,90.00
2022-09-23T17:06:52.530Z,89.20
2022-09-23T17:11:56.373Z,89.30
2022-09-23T17:16:54.566Z,89.40
2022-09-23T17:21:54.370Z,90.20
2022-09-23T17:26:53.412Z,90.00
2022-09-23T17:31:52.487Z,90.00
2022-09-23T17:36:50.796Z,90.00
2022-09-23T17:41:50.288Z,90.10
2022-09-23T17:46:49.311Z,90.10
2022-09-23T17:51:47.560Z,90.30
2022-09-23T17:56:45.712Z,90.40
2022-09-23T18:01:45.314Z,90.30
2022-09-23T18:06:43.493Z,90.30
2022-09-23T18:11:44.287Z,90.50
2022-09-23T18:16:44.159Z,90.60
2022-09-23T18:21:45.730Z,90.80
2022-09-23T18:26:43.893Z,90.70
2022-09-23T18:31:44.144Z,90.80
2022-09-23T18:36:43.798Z,91.50
2022-09-23T18:41:42.331Z,91.10
2022-09-23T18:46:40.435Z,91.20
2022-09-23T18:51:47.611Z,91.20
2022-09-23T18:56:47.452Z,91.50
2022-09-23T19:01:46.800Z,91.20
2022-09-23T19:06:45.398Z,91.60
2022-09-23T19:11:44.461Z,91.80
2022-09-23T19:16:44.537Z,91.80
2022-09-23T19:21:42.835Z,91.90
2022-09-23T19:26:42.675Z,92.00
2022-09-23T19:31:41.831Z,92.10
2022-09-23T19:36:43.282Z,92.10
2022-09-23T19:41:41.394Z,92.30
2022-09-23T19:46:42.829Z,93.00
2022-09-23T19:51:44.091Z,93.20
2022-09-23T19:56:42.234Z,93.40
2022-09-23T20:01:40.429Z,93.80
2022-09-23T20:06:39.444Z,93.60
2022-09-23T20:11:40.587Z,93.50
2022-09-23T20:16:38.906Z,93.80
2022-09-23T20:21:37.088Z,94.20
2022-09-23T20:26:52.518Z,93.60
2022-09-23T20:31:52.193Z,94.10
2022-09-23T20:36:50.376Z,93.70
2022-09-23T20:41:48.866Z,94.10
2022-09-23T20:46:49.032Z,93.80
2022-09-23T20:51:50.422Z,93.60
2022-09-23T20:56:48.627Z,93.60
2022-09-23T21:01:47.630Z,93.80
2022-09-23T21:06:46.108Z,94.00
2022-09-23T21:11:46.702Z,94.10
2022-09-23T21:16:44.962Z,94.20
2022-09-23T21:21:43.274Z,94.20
2022-09-23T21:26:41.431Z,93.90
2022-09-23T21:31:41.082Z,93.90
2022-09-23T21:36:41.429Z,93.90
2022-09-23T21:41:40.144Z,93.90
2022-09-23T21:46:38.421Z,93.90
2022-09-23T21:51:41.510Z,94.10
2022-09-23T21:56:39.942Z,94.10
2022-09-23T22:01:40.141Z,94.10
2022-09-23T22:06:40.510Z,94.00
2022-09-23T22:11:57.113Z,94.10
2022-09-23T22:16:57.487Z,94.20
2022-09-23T22:21:57.726Z,94.30
2022-09-23T22:26:56.007Z,94.10
2022-09-23T22:32:11.952Z,94.20
2022-09-23T22:37:11.550Z,94.40
2022-09-23T22:42:09.646Z,94.60
2022-09-23T22:47:08.128Z,94.50
2022-09-23T22:52:07.960Z,94.70
2022-09-23T22:57:09.089Z,94.80
2022-09-23T23:02:07.723Z,94.80
2022-09-23T23:07:06.573Z,95.10
2022-09-23T23:12:05.133Z,95.10
2022-09-23T23:17:07.619Z,95.20
2022-09-23T23:22:06.228Z,95.10
2022-09-23T23:27:04.353Z,95.20
2022-09-23T23:32:05.146Z,95.10
2022-09-23T23:37:03.297Z,95.10
2022-09-23T23:42:01.478Z,95.20
2022-09-23T23:46:59.722Z,95.20
2022-09-23T23:51:59.220Z,95.10
2022-09-23T23:56:57.334Z,95.20
